Skip Navigation

Christman Field Latest Observations

Switch to metric unitsOther observation timesWeekly graphs

Date Time
MST
Temp
°F
RH
%
DewPt
°F
Wind
mph
Dir
°
Gust
mph
Dir
°
Press
in Hg
Solar
W/m^2
Prec
in
2020-06-01 15:25 86.8 24.8 46.6 4.9 215 6.6 208 24.829 205.1 0.00
2020-06-01 15:20 86.9 20.7 41.9 4.0 176 5.6 164 24.829 229.6 0.00
2020-06-01 15:15 87.2 22.5 44.4 6.0 163 7.9 201 24.831 258.9 0.00
2020-06-01 15:10 88.2 24.0 47.0 4.6 213 6.6 213 24.832 297.0 0.00
2020-06-01 15:05 89.7 16.3 38.0 4.7 190 7.7 202 24.832 362.6 0.00
2020-06-01 15:00 89.7 20.0 43.4 1.6 154 4.8 151 24.832 691.8 0.00
2020-06-01 14:55 88.0 17.2 38.1 4.9 156 9.8 263 24.829 654.4 0.00
2020-06-01 14:50 86.9 16.8 36.5 5.1 308 7.5 249 24.832 370.9 0.00
2020-06-01 14:45 87.9 22.1 44.5 5.1 222 8.2 231 24.827 283.1 0.00
2020-06-01 14:40 88.4 14.1 33.3 4.3 190 7.1 185 24.822 393.7 0.00
2020-06-01 14:35 88.1 13.8 32.7 7.1 194 12.9 190 24.833 512.0 0.00
2020-06-01 14:30 86.8 20.9 42.1 6.8 175 11.2 198 24.842 480.6 0.00
2020-06-01 14:25 88.0 19.3 41.0 7.3 209 11.6 154 24.849 288.1 0.00
2020-06-01 14:20 89.1 16.6 38.1 10.7 156 13.6 184 24.846 555.5 0.00
2020-06-01 14:15 90.2 18.0 41.0 6.8 169 12.1 168 24.849 865.0 0.00
2020-06-01 14:10 89.0 24.9 48.5 5.1 160 7.1 170 24.850 890.0 0.00
2020-06-01 14:05 88.7 17.4 38.9 5.0 137 7.1 143 24.850 528.7 0.00
2020-06-01 14:00 88.5 23.7 46.8 6.2 143 8.4 140 24.850 904.0 0.00
2020-06-01 13:55 88.2 24.8 47.8 4.4 154 7.2 125 24.850 617.2 0.00
2020-06-01 13:50 88.6 20.4 43.0 5.2 135 7.4 139 24.852 896.0 0.00
2020-06-01 13:45 87.8 21.4 43.5 5.2 161 7.8 173 24.856 926.0 0.00
2020-06-01 13:40 87.1 19.0 39.9 5.7 180 9.3 163 24.857 677.3 0.00
2020-06-01 13:35 86.6 16.9 36.6 10.1 134 26.9 118 24.856 621.4 0.00
2020-06-01 13:30 84.9 19.2 38.4 8.3 105 20.3 105 24.860 517.8 0.00
2020-06-01 13:25 84.2 16.5 34.0 15.5 192 28.1 158 24.865 197.5 0.00
2020-06-01 13:20 85.1 30.5 50.7 5.8 206 8.2 206 24.865 212.0 0.00
2020-06-01 13:15 85.4 28.0 48.6 5.8 191 8.1 180 24.865 409.9 0.00
2020-06-01 13:10 85.8 25.9 46.9 6.0 211 8.2 195 24.868 266.1 0.00
2020-06-01 13:05 86.2 26.4 47.7 3.7 192 7.5 171 24.868 377.1 0.00
2020-06-01 13:00 86.5 24.9 46.4 6.3 176 9.3 172 24.866 284.2 0.00